Time;durP1;ratioP1;P1;durP2;ratioP2;P2;SDS_P1;SDS_P2;PMS_P1;PMS_P2;Temp;Humidity;BMP_temperature;BMP_pressure;BME280_temperature;BME280_humidity;BME280_pressure;Samples;Min_cycle;Max_cycle;Signal;HPM_P1;HPM_P2
2022/08/08 00:00:04;;;;;;;0.87;0.87;;;15.40;99.90;;;;;;5094487;28;20878;-69
2022/08/08 00:02:52;;;;;;;0.83;0.83;;;15.30;99.90;;;;;;5094335;28;20530;-67
2022/08/08 00:05:38;;;;;;;0.83;0.83;;;15.30;99.90;;;;;;5094350;28;20426;-69
2022/08/08 00:08:16;;;;;;;0.70;0.70;;;15.30;99.90;;;;;;5094432;28;20962;-67
2022/08/08 00:11:03;;;;;;;1.07;1.07;;;15.30;99.90;;;;;;5094553;28;20741;-67
2022/08/08 00:13:44;;;;;;;0.90;0.90;;;15.30;99.90;;;;;;5094133;28;20446;-68
2022/08/08 00:16:35;;;;;;;0.50;0.50;;;15.30;99.90;;;;;;5094179;28;20426;-66
2022/08/08 00:19:19;;;;;;;1.20;1.10;;;15.30;99.90;;;;;;5071275;28;20414;-68
2022/08/08 00:21:54;;;;;;;0.60;0.60;;;15.30;99.90;;;;;;5075890;28;20422;-68
2022/08/08 00:24:27;;;;;;;0.50;0.50;;;15.30;99.90;;;;;;5094236;28;20502;-69
2022/08/08 00:26:57;;;;;;;0.40;0.40;;;15.30;99.90;;;;;;5094191;28;20381;-68
2022/08/08 00:29:28;;;;;;;0.67;0.67;;;15.30;99.90;;;;;;5094085;28;20397;-67
2022/08/08 00:31:59;;;;;;;0.80;0.80;;;15.20;99.90;;;;;;5093713;28;20405;-67
2022/08/08 00:35:12;;;;;;;0.70;0.70;;;15.20;99.90;;;;;;5093785;28;20780;-67
2022/08/08 00:38:02;;;;;;;0.87;0.87;;;15.10;99.90;;;;;;5093661;28;20399;-69
2022/08/08 00:40:27;;;;;;;1.33;1.27;;;15.10;99.90;;;;;;5093961;28;20402;-70
2022/08/08 00:42:59;;;;;;;1.23;1.03;;;15.10;99.90;;;;;;5093995;28;20406;-69
2022/08/08 00:46:02;;;;;;;0.90;0.90;;;15.10;99.90;;;;;;5093583;28;20562;-69
2022/08/08 00:48:55;;;;;;;1.30;1.30;;;15.00;99.90;;;;;;5093604;28;20441;-69
2022/08/08 00:51:46;;;;;;;2.47;1.60;;;15.00;99.90;;;;;;5093669;28;20407;-68
2022/08/08 00:54:33;;;;;;;0.80;0.80;;;15.00;99.90;;;;;;5093959;28;20451;-67
2022/08/08 00:57:17;;;;;;;1.23;1.03;;;15.00;99.90;;;;;;5093507;28;20399;-67
2022/08/08 01:00:06;;;;;;;1.17;0.93;;;15.00;99.90;;;;;;5075302;28;20407;-68
2022/08/08 01:02:37;;;;;;;0.60;0.60;;;14.90;99.90;;;;;;5093464;28;20431;-69
2022/08/08 01:05:57;;;;;;;0.67;0.67;;;15.00;99.90;;;;;;5093538;28;20430;-68
2022/08/08 01:08:51;;;;;;;0.80;0.57;;;15.00;99.90;;;;;;5031249;28;20413;-68
2022/08/08 01:11:22;;;;;;;2.70;1.77;;;15.00;99.90;;;;;;5093722;28;20431;-68
2022/08/08 01:14:28;;;;;;;0.80;0.80;;;14.90;99.90;;;;;;5093736;28;20891;-68
2022/08/08 01:17:18;;;;;;;0.80;0.80;;;14.90;99.90;;;;;;5093612;28;20376;-68
2022/08/08 01:19:55;;;;;;;0.57;0.57;;;14.80;99.90;;;;;;5093391;28;20490;-67
2022/08/08 01:22:47;;;;;;;0.67;0.67;;;14.80;99.90;;;;;;5093545;28;20461;-68
2022/08/08 01:25:44;;;;;;;0.63;0.63;;;14.70;99.90;;;;;;5093613;28;20419;-69
2022/08/08 01:28:45;;;;;;;0.50;0.40;;;14.60;99.90;;;;;;5092991;28;20403;-67
2022/08/08 01:31:31;;;;;;;0.80;0.77;;;14.60;99.90;;;;;;5093588;28;20796;-67
2022/08/08 01:34:21;;;;;;;0.57;0.57;;;14.70;99.90;;;;;;5093117;28;20442;-67
2022/08/08 01:36:55;;;;;;;0.60;0.60;;;14.70;99.90;;;;;;5093225;28;20819;-67
2022/08/08 01:40:21;;;;;;;0.80;0.80;;;14.60;99.90;;;;;;5093094;28;20390;-67
2022/08/08 01:42:57;;;;;;;1.63;1.53;;;14.60;99.90;;;;;;5030788;28;20925;-68
2022/08/08 01:45:36;;;;;;;0.80;0.80;;;14.70;99.90;;;;;;5030900;28;20468;-68
2022/08/08 01:48:17;;;;;;;1.13;0.97;;;14.70;99.90;;;;;;5069618;28;20767;-68
2022/08/08 01:50:52;;;;;;;0.90;0.90;;;14.60;99.90;;;;;;5093337;28;20763;-69
2022/08/08 01:53:43;;;;;;;0.50;0.50;;;14.70;99.90;;;;;;5093136;28;20451;-69
2022/08/08 01:56:28;;;;;;;0.60;0.60;;;14.70;99.90;;;;;;5094292;28;20548;-69
2022/08/08 01:59:27;;;;;;;1.07;1.03;;;14.70;99.90;;;;;;5096760;28;20398;-68
2022/08/08 02:02:10;;;;;;;1.47;1.37;;;14.80;99.90;;;;;;5097276;28;20395;-67
2022/08/08 02:04:42;;;;;;;5.03;1.23;;;14.80;99.90;;;;;;5096960;28;20425;-67
2022/08/08 02:07:26;;;;;;;0.60;0.60;;;14.90;99.90;;;;;;5096976;28;20448;-67
2022/08/08 02:10:13;;;;;;;0.97;0.97;;;14.90;99.90;;;;;;5096666;28;20399;-67
2022/08/08 02:12:56;;;;;;;0.70;0.70;;;14.90;99.90;;;;;;5096589;28;20526;-68
2022/08/08 02:15:33;;;;;;;0.80;0.80;;;14.90;99.90;;;;;;5096534;28;20422;-69
2022/08/08 02:18:31;;;;;;;0.50;0.50;;;14.80;99.90;;;;;;5096440;28;20398;-68
2022/08/08 02:23:58;;;;;;;0.93;0.80;;;14.70;99.90;;;;;;5096969;28;20402;-67
2022/08/08 02:26:32;;;;;;;0.90;0.90;;;14.70;99.90;;;;;;5096499;28;20422;-69
2022/08/08 02:29:16;;;;;;;0.53;0.53;;;14.70;99.90;;;;;;5096434;28;20455;-69
2022/08/08 02:32:14;;;;;;;0.70;0.70;;;14.70;99.90;;;;;;5096548;28;20765;-67
2022/08/08 02:35:03;;;;;;;0.60;0.60;;;14.70;99.90;;;;;;5096190;28;20474;-67
2022/08/08 02:38:06;;;;;;;0.90;0.90;;;14.70;99.90;;;;;;5095044;28;20777;-68
2022/08/08 02:40:46;;;;;;;1.47;1.07;;;14.70;99.90;;;;;;5096236;28;20749;-67
2022/08/08 02:43:33;;;;;;;0.70;0.70;;;14.70;99.90;;;;;;5096000;28;20412;-66
2022/08/08 02:46:20;;;;;;;0.80;0.80;;;14.60;99.90;;;;;;5096044;28;20422;-68
2022/08/08 02:49:13;;;;;;;1.10;0.90;;;14.60;99.90;;;;;;5095792;28;20404;-68
2022/08/08 02:51:58;;;;;;;1.67;1.23;;;14.50;99.90;;;;;;5096356;28;20403;-67
2022/08/08 02:54:44;;;;;;;1.20;1.00;;;14.60;99.90;;;;;;5095718;28;20547;-68
2022/08/08 02:57:33;;;;;;;0.63;0.60;;;14.50;99.90;;;;;;5096097;28;20390;-69
2022/08/08 03:00:19;;;;;;;0.60;0.60;;;14.60;99.90;;;;;;5095827;28;20406;-67
2022/08/08 03:02:54;;;;;;;1.63;1.53;;;14.50;99.90;;;;;;5095734;28;20433;-69
2022/08/08 03:05:50;;;;;;;1.00;1.00;;;14.40;99.90;;;;;;5095702;28;20458;-68
2022/08/08 03:08:37;;;;;;;0.80;0.80;;;14.40;99.90;;;;;;5095397;28;20398;-69
2022/08/08 03:11:33;;;;;;;0.50;0.50;;;14.40;99.90;;;;;;5095971;28;20905;-67
2022/08/08 03:14:32;;;;;;;0.80;0.80;;;14.40;99.90;;;;;;5095575;28;20920;-68
2022/08/08 03:17:09;;;;;;;0.63;0.63;;;14.40;99.90;;;;;;5071466;28;20421;-67
2022/08/08 03:20:07;;;;;;;0.50;0.50;;;14.40;99.90;;;;;;5077281;28;20402;-68
2022/08/08 03:22:40;;;;;;;0.70;0.70;;;14.30;99.90;;;;;;5095599;28;20485;-69
2022/08/08 03:25:07;;;;;;;0.60;0.60;;;14.30;99.90;;;;;;5095606;28;20807;-67
2022/08/08 03:27:38;;;;;;;1.03;1.03;;;14.40;99.90;;;;;;5095287;28;20393;-68
2022/08/08 03:30:10;;;;;;;0.57;0.57;;;14.40;99.90;;;;;;5095449;28;20730;-67
2022/08/08 03:35:25;;;;;;;2.00;1.90;;;14.40;99.90;;;;;;5095170;28;20489;-67
2022/08/08 03:37:51;;;;;;;1.67;1.13;;;14.40;99.90;;;;;;5094836;28;20802;-69
2022/08/08 03:40:19;;;;;;;1.37;1.27;;;14.30;99.90;;;;;;5095066;28;20589;-69
2022/08/08 03:42:46;;;;;;;0.93;0.73;;;14.30;99.90;;;;;;5095017;28;20431;-68
2022/08/08 03:45:17;;;;;;;0.40;0.40;;;14.30;99.90;;;;;;5094933;28;20465;-68
2022/08/08 03:47:52;;;;;;;0.70;0.70;;;14.40;99.90;;;;;;5094587;28;20470;-67
2022/08/08 03:50:19;;;;;;;0.70;0.70;;;14.40;99.90;;;;;;5095220;28;20394;-69
2022/08/08 03:52:44;;;;;;;1.20;1.10;;;14.40;99.90;;;;;;5094624;28;20970;-69
2022/08/08 03:55:13;;;;;;;0.50;0.50;;;14.40;99.90;;;;;;5094659;28;20462;-68
2022/08/08 03:57:47;;;;;;;2.20;0.67;;;14.30;99.90;;;;;;5094472;28;20661;-69
2022/08/08 04:00:15;;;;;;;0.70;0.70;;;14.30;99.90;;;;;;5094717;28;20729;-69
2022/08/08 04:02:41;;;;;;;0.57;0.57;;;14.20;99.90;;;;;;5094431;28;20417;-69
2022/08/08 04:05:08;;;;;;;0.67;0.67;;;14.20;99.90;;;;;;5094672;28;20471;-68
2022/08/08 04:07:38;;;;;;;0.60;0.60;;;14.20;99.90;;;;;;5094389;28;20398;-69
2022/08/08 04:10:05;;;;;;;0.57;0.57;;;14.10;99.90;;;;;;5094528;28;20406;-67
2022/08/08 04:12:31;;;;;;;0.50;0.43;;;14.10;99.90;;;;;;5094399;28;20709;-66
2022/08/08 04:14:57;;;;;;;0.70;0.70;;;14.10;99.90;;;;;;5094154;28;20429;-68
2022/08/08 04:17:22;;;;;;;0.87;0.87;;;14.10;99.90;;;;;;5076200;28;20173;-68
2022/08/08 04:19:48;;;;;;;0.57;0.50;;;14.10;99.60;;;;;;5093763;28;20217;-67
2022/08/08 04:22:13;;;;;;;1.17;1.07;;;14.10;99.80;;;;;;5094251;28;20246;-67
2022/08/08 04:24:39;;;;;;;0.97;0.70;;;14.20;99.60;;;;;;5094369;28;20333;-68
2022/08/08 04:27:05;;;;;;;0.50;0.50;;;14.30;99.50;;;;;;5094314;28;20173;-67
2022/08/08 04:29:32;;;;;;;0.50;0.50;;;14.40;99.40;;;;;;5093917;28;20171;-68
2022/08/08 04:31:57;;;;;;;2.43;2.20;;;14.30;99.20;;;;;;5094488;28;20403;-68
2022/08/08 04:34:23;;;;;;;0.53;0.53;;;14.40;99.30;;;;;;5093994;28;20976;-67
2022/08/08 04:36:49;;;;;;;0.40;0.40;;;14.30;99.20;;;;;;5094111;28;20410;-67
2022/08/08 04:39:14;;;;;;;0.40;0.40;;;14.30;99.30;;;;;;5094051;28;20248;-69
2022/08/08 04:41:40;;;;;;;0.60;0.60;;;14.30;99.20;;;;;;5094258;28;20169;-68
2022/08/08 04:44:06;;;;;;;3.90;1.10;;;14.30;99.10;;;;;;5094176;28;20179;-66
2022/08/08 04:46:32;;;;;;;0.50;0.50;;;14.40;99.10;;;;;;5093917;28;20192;-67
2022/08/08 04:48:57;;;;;;;4.53;0.90;;;14.50;99.10;;;;;;5093786;28;20902;-68
2022/08/08 04:51:23;;;;;;;0.53;0.53;;;14.40;99.00;;;;;;5094250;28;20656;-67
2022/08/08 04:53:49;;;;;;;0.50;0.50;;;14.40;99.20;;;;;;5093934;28;20242;-68
2022/08/08 04:56:16;;;;;;;0.73;0.73;;;14.40;99.20;;;;;;5093673;28;20216;-67
2022/08/08 04:58:42;;;;;;;0.87;0.87;;;14.40;99.30;;;;;;5093586;28;20168;-69
2022/08/08 05:01:08;;;;;;;1.00;0.97;;;14.40;99.00;;;;;;5075564;28;20409;-69
2022/08/08 05:03:34;;;;;;;1.20;1.20;;;14.40;99.00;;;;;;5093564;28;20836;-68
2022/08/08 05:06:00;;;;;;;1.10;1.00;;;14.50;99.50;;;;;;5093903;28;20430;-68
2022/08/08 05:08:25;;;;;;;0.70;0.70;;;14.90;99.30;;;;;;5093655;28;20172;-68
2022/08/08 05:10:52;;;;;;;1.00;0.90;;;15.30;98.50;;;;;;5093862;28;20403;-68
2022/08/08 05:13:18;;;;;;;0.60;0.50;;;15.70;98.10;;;;;;5093645;28;20192;-69
2022/08/08 05:15:43;;;;;;;0.70;0.70;;;16.00;97.80;;;;;;5093727;28;20423;-68
2022/08/08 05:18:09;;;;;;;1.13;1.03;;;16.40;97.60;;;;;;5093566;28;20481;-67
2022/08/08 05:20:35;;;;;;;0.57;0.57;;;16.80;96.40;;;;;;5093592;28;20402;-69
2022/08/08 05:23:01;;;;;;;1.00;0.90;;;17.00;95.70;;;;;;5093670;28;20395;-69
2022/08/08 05:25:27;;;;;;;0.50;0.50;;;17.10;95.50;;;;;;5093583;28;20574;-68
2022/08/08 05:27:52;;;;;;;0.70;0.50;;;17.00;94.40;;;;;;5093267;28;20494;-67
2022/08/08 05:30:18;;;;;;;0.53;0.53;;;17.10;94.40;;;;;;5093451;28;20180;-68
2022/08/08 05:32:44;;;;;;;0.60;0.50;;;17.20;94.20;;;;;;5097534;28;20204;-69
2022/08/08 05:35:12;;;;;;;0.40;0.40;;;17.30;93.40;;;;;;5097502;28;20435;-70
2022/08/08 05:37:51;;;;;;;2.53;2.40;;;17.40;93.20;;;;;;5097375;28;20168;-67
2022/08/08 05:40:17;;;;;;;0.47;0.43;;;17.60;93.20;;;;;;5097926;28;20398;-68
2022/08/08 05:42:45;;;;;;;0.43;0.40;;;18.10;93.00;;;;;;5097644;28;20829;-69
2022/08/08 05:45:12;;;;;;;0.40;0.40;;;18.30;92.50;;;;;;5097257;28;20427;-69
2022/08/08 05:47:39;;;;;;;0.70;0.70;;;18.60;91.60;;;;;;5097163;28;20444;-68
2022/08/08 05:50:06;;;;;;;1.20;0.90;;;18.90;91.40;;;;;;5097471;28;20404;-69
2022/08/08 05:52:36;;;;;;;0.60;0.60;;;19.30;91.60;;;;;;5097237;28;20408;-69
2022/08/08 05:55:03;;;;;;;1.17;0.97;;;19.60;90.90;;;;;;5097371;28;20440;-69
2022/08/08 05:57:33;;;;;;;0.57;0.57;;;19.70;90.00;;;;;;5097204;28;20432;-68
2022/08/08 06:00:04;;;;;;;0.60;0.60;;;19.80;89.70;;;;;;5097132;28;20417;-68
2022/08/08 06:05:17;;;;;;;0.50;0.50;;;19.90;90.50;;;;;;5096043;28;20606;-69
2022/08/08 06:07:46;;;;;;;0.50;0.50;;;19.80;90.20;;;;;;5095388;28;20398;-68
2022/08/08 06:10:12;;;;;;;0.60;0.60;;;19.90;90.50;;;;;;5095761;28;20402;-70
2022/08/08 06:12:40;;;;;;;1.00;1.00;;;20.10;89.30;;;;;;5095498;28;20405;-68
2022/08/08 06:15:07;;;;;;;0.50;0.50;;;20.30;88.20;;;;;;5095515;28;20800;-68
2022/08/08 06:17:34;;;;;;;0.73;0.73;;;21.00;88.50;;;;;;5095403;28;20396;-69
2022/08/08 06:20:11;;;;;;;0.80;0.60;;;21.70;84.10;;;;;;5092249;28;20404;-69
2022/08/08 06:22:37;;;;;;;0.80;0.60;;;21.90;83.00;;;;;;5095626;28;20425;-70
2022/08/08 06:25:04;;;;;;;0.50;0.50;;;22.10;82.30;;;;;;5095227;28;20840;-69
2022/08/08 06:27:41;;;;;;;0.60;0.53;;;22.00;82.10;;;;;;5095292;28;20249;-70
2022/08/08 06:30:10;;;;;;;0.67;0.67;;;21.90;83.40;;;;;;5077272;28;20410;-69
2022/08/08 06:32:42;;;;;;;0.70;0.70;;;21.70;83.20;;;;;;5095112;28;20399;-68
2022/08/08 06:35:11;;;;;;;0.60;0.60;;;21.60;83.50;;;;;;5095375;28;20499;-69
2022/08/08 06:37:42;;;;;;;0.77;0.77;;;21.50;84.80;;;;;;5094991;28;20788;-68
2022/08/08 06:40:13;;;;;;;3.80;0.60;;;21.50;82.60;;;;;;5095293;28;20431;-67
2022/08/08 06:42:42;;;;;;;1.30;0.87;;;21.50;83.70;;;;;;5094887;28;20406;-70
2022/08/08 06:45:08;;;;;;;1.03;0.90;;;21.70;83.50;;;;;;5094970;28;20430;-69
2022/08/08 06:47:34;;;;;;;0.60;0.60;;;22.10;80.90;;;;;;5094991;28;20944;-69
2022/08/08 06:50:00;;;;;;;0.57;0.57;;;22.70;81.40;;;;;;5095054;28;20175;-70
2022/08/08 06:52:27;;;;;;;0.70;0.70;;;23.80;77.90;;;;;;5094998;28;20403;-70
2022/08/08 06:54:54;;;;;;;0.50;0.50;;;24.70;74.70;;;;;;5095014;28;20398;-70
2022/08/08 06:57:20;;;;;;;0.50;0.50;;;25.20;68.90;;;;;;5094847;28;20373;-69
2022/08/08 06:59:46;;;;;;;0.57;0.57;;;25.10;67.50;;;;;;5094632;28;20432;-68
2022/08/08 07:02:22;;;;;;;1.20;0.63;;;25.10;69.70;;;;;;5054612;28;1139095;-69
2022/08/08 07:04:54;;;;;;;0.80;0.67;;;25.30;70.90;;;;;;5095984;28;20180;-70
2022/08/08 07:07:54;;;;;;;0.60;0.60;;;25.30;67.90;;;;;;5095730;28;20495;-69
2022/08/08 07:10:22;;;;;;;0.50;0.50;;;25.10;67.70;;;;;;5072012;28;20788;-69
2022/08/08 07:13:01;;;;;;;0.73;0.70;;;24.50;64.90;;;;;;5095541;28;20804;-69
2022/08/08 07:16:13;;;;;;;0.30;0.30;;;24.00;69.20;;;;;;5095572;28;20494;-69
2022/08/08 07:19:07;;;;;;;0.50;0.50;;;23.90;66.70;;;;;;5091196;28;20389;-68
2022/08/08 07:21:56;;;;;;;0.50;0.50;;;24.20;67.70;;;;;;5095722;28;20399;-70
2022/08/08 07:24:29;;;;;;;0.50;0.40;;;24.60;64.30;;;;;;5095555;28;20941;-68
2022/08/08 07:26:58;;;;;;;0.53;0.50;;;25.50;64.30;;;;;;5095623;28;20388;-69
2022/08/08 07:29:24;;;;;;;0.70;0.40;;;26.40;58.40;;;;;;5094897;28;20823;-70
2022/08/08 07:31:50;;;;;;;0.70;0.70;;;26.80;58.50;;;;;;5095035;28;20406;-69
2022/08/08 07:34:17;;;;;;;0.60;0.60;;;27.40;57.50;;;;;;5095294;28;20815;-70
2022/08/08 07:36:45;;;;;;;1.63;0.80;;;27.70;55.70;;;;;;5095094;28;20180;-69
2022/08/08 07:39:10;;;;;;;0.60;0.60;;;28.50;53.60;;;;;;5094963;28;20532;-70
2022/08/08 07:41:39;;;;;;;0.70;0.50;;;29.70;50.50;;;;;;5095358;28;20455;-69
2022/08/08 07:44:06;;;;;;;0.40;0.40;;;30.20;48.90;;;;;;5076988;28;20629;-70
2022/08/08 07:46:32;;;;;;;0.40;0.40;;;31.50;46.60;;;;;;5094860;28;20433;-69
2022/08/08 07:48:57;;;;;;;0.43;0.43;;;32.40;43.90;;;;;;5094914;28;20772;-69
2022/08/08 07:51:24;;;;;;;0.80;0.70;;;33.30;41.60;;;;;;5095049;28;20169;-70
2022/08/08 07:54:41;;;;;;;0.60;0.60;;;33.90;39.50;;;;;;5093041;28;20536;-69
2022/08/08 07:57:32;;;;;;;0.70;0.70;;;35.70;36.30;;;;;;5032692;28;20417;-70
2022/08/08 08:00:09;;;;;;;0.60;0.60;;;35.70;34.80;;;;;;5032614;28;20406;-71
2022/08/08 08:02:43;;;;;;;0.50;0.50;;;35.60;34.40;;;;;;5082176;28;20430;-70
2022/08/08 08:05:26;;;;;;;0.70;0.70;;;35.10;34.00;;;;;;5094695;28;20907;-70
2022/08/08 08:08:20;;;;;;;0.60;0.60;;;33.90;34.10;;;;;;5094344;28;20426;-70
2022/08/08 08:10:50;;;;;;;0.50;0.50;;;33.20;34.80;;;;;;5094512;28;20399;-69
2022/08/08 08:13:35;;;;;;;0.63;0.63;;;33.00;35.50;;;;;;5094491;28;20443;-69
2022/08/08 08:16:16;;;;;;;0.50;0.50;;;32.70;35.00;;;;;;5094319;28;20469;-70
2022/08/08 08:18:45;;;;;;;0.50;0.50;;;32.40;35.80;;;;;;5093999;28;20407;-69
2022/08/08 08:21:14;;;;;;;0.40;0.40;;;32.60;36.40;;;;;;5094481;28;20399;-69
2022/08/08 08:23:39;;;;;;;0.50;0.50;;;33.70;35.50;;;;;;5094392;28;20415;-70
2022/08/08 08:26:05;;;;;;;0.40;0.40;;;33.80;34.70;;;;;;5076038;28;20572;-70
2022/08/08 08:28:31;;;;;;;0.50;0.50;;;33.60;34.00;;;;;;5093957;28;20180;-69
2022/08/08 08:31:01;;;;;;;0.47;0.47;;;32.80;34.80;;;;;;5076512;28;20269;-70
2022/08/08 08:33:27;;;;;;;0.60;0.60;;;32.60;35.70;;;;;;5094216;28;20454;-69
2022/08/08 08:35:53;;;;;;;0.53;0.53;;;32.00;35.20;;;;;;5094028;28;20456;-70
2022/08/08 08:38:18;;;;;;;0.50;0.50;;;31.90;34.80;;;;;;5093930;28;20172;-70
2022/08/08 08:40:44;;;;;;;0.50;0.50;;;32.60;35.60;;;;;;5094132;28;20176;-70
2022/08/08 08:43:11;;;;;;;0.70;0.60;;;33.20;33.70;;;;;;5094002;28;20184;-70
2022/08/08 08:45:37;;;;;;;0.40;0.40;;;33.40;33.20;;;;;;5075839;28;20447;-70
2022/08/08 08:48:04;;;;;;;0.60;0.57;;;33.20;34.30;;;;;;5093630;28;20459;-70
2022/08/08 08:50:32;;;;;;;0.40;0.40;;;32.60;33.90;;;;;;5094114;28;20535;-68
2022/08/08 08:53:00;;;;;;;0.43;0.43;;;32.90;33.60;;;;;;5093996;28;20553;-69
2022/08/08 08:55:29;;;;;;;1.73;0.60;;;32.90;33.50;;;;;;5075918;28;20521;-70
2022/08/08 08:57:57;;;;;;;0.70;0.60;;;32.80;33.00;;;;;;5093600;28;20494;-70
2022/08/08 09:00:23;;;;;;;0.60;0.50;;;32.40;33.70;;;;;;5093815;28;20407;-70
2022/08/08 09:02:50;;;;;;;0.87;0.67;;;32.30;34.10;;;;;;5093520;28;20915;-70
2022/08/08 09:05:17;;;;;;;0.47;0.47;;;32.40;33.80;;;;;;5093356;28;20544;-70
2022/08/08 09:07:45;;;;;;;0.60;0.60;;;32.20;33.20;;;;;;5093357;28;20415;-70
2022/08/08 09:10:15;;;;;;;0.60;0.60;;;32.50;33.20;;;;;;5093586;28;20440;-70
2022/08/08 09:12:43;;;;;;;0.40;0.40;;;32.80;33.30;;;;;;5093513;28;20911;-70
2022/08/08 09:15:10;;;;;;;0.60;0.60;;;33.20;32.70;;;;;;5093833;28;20509;-70
2022/08/08 09:17:36;;;;;;;0.40;0.40;;;33.40;32.70;;;;;;5093322;28;20407;-70
2022/08/08 09:20:02;;;;;;;0.60;0.50;;;33.30;32.90;;;;;;5093122;28;20407;-70
2022/08/08 09:22:28;;;;;;;0.43;0.43;;;32.60;32.80;;;;;;5093808;28;20403;-70
2022/08/08 09:24:55;;;;;;;0.60;0.40;;;32.50;35.10;;;;;;5093326;28;20426;-70
2022/08/08 09:27:21;;;;;;;0.57;0.57;;;32.90;34.40;;;;;;5093261;28;20168;-70
2022/08/08 09:29:50;;;;;;;0.40;0.40;;;33.50;32.50;;;;;;5093210;28;20448;-69
2022/08/08 09:32:43;;;;;;;0.57;0.57;;;33.50;30.20;;;;;;5093409;28;20222;-69
2022/08/08 09:35:13;;;;;;;0.50;0.50;;;33.00;32.30;;;;;;5090043;28;20794;-69
2022/08/08 09:37:48;;;;;;;0.37;0.37;;;33.00;32.20;;;;;;5093086;28;20387;-70
2022/08/08 09:40:15;;;;;;;0.40;0.40;;;33.80;32.90;;;;;;5093523;28;20418;-70
2022/08/08 09:43:07;;;;;;;0.47;0.47;;;34.10;31.20;;;;;;5093472;28;20407;-71
2022/08/08 09:45:45;;;;;;;0.60;0.60;;;34.50;31.00;;;;;;5093228;28;20422;-70
2022/08/08 09:48:15;;;;;;;0.60;0.40;;;35.00;31.40;;;;;;5093070;28;20393;-70
2022/08/08 09:50:41;;;;;;;0.80;0.50;;;35.60;32.10;;;;;;5093398;28;20395;-70
2022/08/08 09:53:09;;;;;;;0.40;0.40;;;35.70;30.50;;;;;;5093334;28;20460;-70
2022/08/08 09:55:36;;;;;;;0.90;0.90;;;35.90;30.20;;;;;;5093077;28;20243;-70
2022/08/08 09:58:06;;;;;;;0.40;0.40;;;36.00;30.30;;;;;;5092946;28;20411;-70
2022/08/08 10:00:37;;;;;;;0.57;0.57;;;34.80;30.50;;;;;;5093285;28;20747;-69
2022/08/08 10:03:04;;;;;;;0.40;0.40;;;34.60;32.10;;;;;;5093259;28;20832;-70
2022/08/08 10:05:35;;;;;;;0.60;0.60;;;34.50;30.40;;;;;;5092989;28;20449;-70
2022/08/08 10:08:01;;;;;;;0.60;0.60;;;34.20;31.70;;;;;;5092930;28;20770;-69
2022/08/08 10:10:36;;;;;;;0.60;0.60;;;33.30;31.90;;;;;;5074952;28;20950;-70
2022/08/08 10:13:20;;;;;;;0.93;0.60;;;33.30;33.10;;;;;;5093130;28;20847;-71
2022/08/08 10:15:48;;;;;;;0.80;0.53;;;33.40;33.80;;;;;;5092966;28;20427;-70
2022/08/08 10:18:23;;;;;;;0.80;0.53;;;33.40;32.50;;;;;;5095705;28;20431;-69
2022/08/08 10:20:54;;;;;;;0.40;0.40;;;33.60;32.90;;;;;;5096918;28;20391;-70
2022/08/08 10:23:40;;;;;;;0.47;0.47;;;32.80;32.00;;;;;;5096705;28;20395;-70
2022/08/08 10:26:08;;;;;;;1.37;0.60;;;32.80;34.00;;;;;;5096605;28;20915;-70
2022/08/08 10:28:36;;;;;;;0.50;0.50;;;32.70;32.80;;;;;;5078284;28;20776;-68
2022/08/08 10:33:59;;;;;;;0.47;0.47;;;31.30;34.30;;;;;;5006741;28;20467;-69
2022/08/08 10:36:27;;;;;;;0.50;0.50;;;30.90;35.90;;;;;;5096369;28;20448;-69
2022/08/08 10:38:57;;;;;;;0.50;0.50;;;30.90;37.00;;;;;;5096404;28;20791;-69
2022/08/08 10:41:24;;;;;;;0.50;0.50;;;30.60;36.50;;;;;;5096257;28;20907;-69
2022/08/08 10:43:51;;;;;;;0.40;0.40;;;30.70;35.80;;;;;;5078060;28;20453;-70
2022/08/08 10:46:27;;;;;;;0.43;0.43;;;30.50;37.20;;;;;;5095967;28;20435;-69
2022/08/08 10:48:54;;;;;;;0.60;0.60;;;30.70;36.50;;;;;;5095836;28;20803;-70
2022/08/08 10:51:25;;;;;;;0.50;0.50;;;30.80;37.30;;;;;;5095794;28;20399;-70
2022/08/08 10:53:54;;;;;;;0.40;0.40;;;30.70;38.40;;;;;;5096076;28;20450;-68
2022/08/08 10:56:20;;;;;;;0.53;0.53;;;30.80;37.20;;;;;;5095897;28;20432;-69
2022/08/08 10:58:46;;;;;;;0.40;0.40;;;30.60;36.20;;;;;;5077455;28;20415;-69
2022/08/08 11:01:13;;;;;;;0.40;0.40;;;29.90;36.60;;;;;;5095924;28;20404;-69
2022/08/08 11:03:41;;;;;;;0.50;0.47;;;29.60;38.10;;;;;;5095726;28;20423;-69
2022/08/08 11:06:07;;;;;;;0.40;0.40;;;29.40;38.90;;;;;;5095650;28;20427;-69
2022/08/08 11:08:35;;;;;;;0.43;0.43;;;29.00;39.20;;;;;;5095463;28;20415;-70
2022/08/08 11:11:08;;;;;;;0.43;0.43;;;29.10;38.10;;;;;;5095703;28;20455;-69
2022/08/08 11:13:41;;;;;;;0.50;0.50;;;29.10;37.70;;;;;;5095605;28;20512;-70
2022/08/08 11:16:08;;;;;;;0.60;0.60;;;29.00;39.00;;;;;;5095512;28;20426;-68
2022/08/08 11:18:36;;;;;;;1.23;0.60;;;28.90;38.50;;;;;;5095480;28;20793;-70
2022/08/08 11:21:03;;;;;;;0.50;0.50;;;28.80;38.70;;;;;;5095528;28;20403;-70
2022/08/08 11:23:33;;;;;;;0.60;0.60;;;28.80;39.70;;;;;;5095616;28;20452;-68
2022/08/08 11:26:04;;;;;;;0.50;0.50;;;28.70;40.00;;;;;;5077022;28;20431;-69
2022/08/08 11:28:34;;;;;;;0.47;0.47;;;28.80;40.10;;;;;;5094165;28;20405;-69
2022/08/08 11:31:01;;;;;;;0.40;0.40;;;29.00;40.10;;;;;;5095347;28;20460;-69
2022/08/08 11:33:29;;;;;;;0.50;0.50;;;28.80;40.20;;;;;;5095356;28;20541;-70
2022/08/08 11:35:57;;;;;;;0.50;0.50;;;28.40;40.00;;;;;;5094944;28;20426;-70
2022/08/08 11:38:24;;;;;;;0.40;0.40;;;28.30;41.50;;;;;;5094922;28;20463;-70
2022/08/08 11:40:51;;;;;;;0.50;0.50;;;28.50;40.10;;;;;;5095047;28;20382;-69
2022/08/08 11:43:18;;;;;;;0.57;0.53;;;28.40;40.40;;;;;;5076874;28;20423;-69
2022/08/08 11:45:48;;;;;;;0.50;0.50;;;28.50;38.70;;;;;;5076725;28;20951;-70
2022/08/08 11:48:15;;;;;;;0.60;0.57;;;28.50;39.40;;;;;;5094386;28;20883;-70
2022/08/08 11:50:42;;;;;;;0.47;0.47;;;28.20;39.00;;;;;;5094858;28;20411;-70
2022/08/08 11:53:09;;;;;;;0.40;0.40;;;28.30;40.00;;;;;;5094906;28;20470;-70
2022/08/08 11:55:45;;;;;;;0.50;0.50;;;28.20;39.70;;;;;;5076541;28;20444;-69
2022/08/08 11:58:13;;;;;;;0.60;0.60;;;28.20;41.10;;;;;;5094778;28;20391;-69
2022/08/08 12:00:46;;;;;;;0.87;0.60;;;28.30;40.30;;;;;;5094675;28;20409;-69
2022/08/08 12:03:38;;;;;;;0.40;0.40;;;28.10;40.20;;;;;;5094551;28;20408;-70
2022/08/08 12:06:14;;;;;;;0.80;0.80;;;28.00;40.50;;;;;;5094533;28;20434;-70
2022/08/08 12:08:41;;;;;;;0.60;0.50;;;27.70;41.00;;;;;;5094919;28;21028;-70
2022/08/08 12:11:24;;;;;;;0.40;0.40;;;27.80;41.20;;;;;;5094523;28;20504;-69
2022/08/08 12:13:50;;;;;;;0.70;0.60;;;27.80;40.20;;;;;;5094321;28;20451;-70
2022/08/08 12:16:19;;;;;;;0.80;0.80;;;27.80;40.50;;;;;;5094340;28;20413;-70
2022/08/08 12:18:55;;;;;;;0.50;0.50;;;27.90;40.40;;;;;;5094118;28;20161;-70
2022/08/08 12:21:29;;;;;;;0.40;0.40;;;27.80;39.00;;;;;;5094540;28;20504;-68
2022/08/08 12:24:12;;;;;;;0.60;0.50;;;27.40;41.30;;;;;;5094491;28;20913;-70
2022/08/08 12:26:49;;;;;;;0.60;0.60;;;27.70;43.20;;;;;;5094393;28;20434;-70
2022/08/08 12:29:35;;;;;;;0.50;0.50;;;27.80;42.20;;;;;;5093767;28;20398;-69
2022/08/08 12:32:05;;;;;;;0.63;0.63;;;28.00;43.60;;;;;;5094326;28;20414;-70
2022/08/08 12:34:49;;;;;;;0.60;0.60;;;27.60;41.20;;;;;;5094160;28;20440;-70
2022/08/08 12:37:21;;;;;;;0.50;0.50;;;27.30;42.00;;;;;;5094293;28;20707;-69
2022/08/08 12:39:46;;;;;;;1.07;0.97;;;27.30;42.70;;;;;;5093528;28;20403;-70
2022/08/08 12:42:12;;;;;;;0.47;0.40;;;27.30;42.10;;;;;;5094531;28;20544;-69
2022/08/08 12:44:40;;;;;;;0.60;0.60;;;27.40;41.00;;;;;;5094095;28;20647;-69
2022/08/08 12:47:06;;;;;;;0.60;0.60;;;27.20;42.80;;;;;;5093939;28;20197;-70
2022/08/08 12:49:34;;;;;;;1.00;0.60;;;26.80;42.80;;;;;;5093622;28;20443;-71
2022/08/08 12:52:00;;;;;;;1.23;0.80;;;26.90;42.80;;;;;;5093795;28;20409;-70
2022/08/08 12:54:32;;;;;;;0.47;0.47;;;27.10;41.70;;;;;;5093691;28;20496;-69
2022/08/08 12:56:59;;;;;;;0.60;0.60;;;27.20;41.50;;;;;;5093868;28;20875;-70
2022/08/08 12:59:27;;;;;;;0.67;0.67;;;27.30;41.40;;;;;;5093739;28;20369;-69
2022/08/08 13:02:00;;;;;;;0.90;0.90;;;27.30;41.40;;;;;;5093842;28;20456;-68
2022/08/08 13:04:34;;;;;;;0.60;0.60;;;27.40;42.20;;;;;;5093580;28;20415;-70
2022/08/08 13:07:07;;;;;;;0.80;0.63;;;27.50;41.70;;;;;;5093972;28;20462;-70
2022/08/08 13:09:39;;;;;;;0.40;0.40;;;27.50;42.00;;;;;;5093594;28;20753;-70
2022/08/08 13:12:15;;;;;;;0.60;0.50;;;27.50;41.20;;;;;;5075681;28;20918;-70
2022/08/08 13:14:47;;;;;;;0.40;0.40;;;27.50;40.10;;;;;;5093383;28;20439;-69
2022/08/08 13:17:15;;;;;;;0.40;0.40;;;27.50;40.80;;;;;;5093707;28;20464;-68
2022/08/08 13:19:42;;;;;;;0.50;0.50;;;27.60;40.70;;;;;;5075296;28;20406;-68
2022/08/08 13:22:08;;;;;;;0.63;0.63;;;27.50;39.20;;;;;;5093536;28;20464;-69
2022/08/08 13:24:38;;;;;;;0.40;0.40;;;27.50;40.00;;;;;;5093524;28;20461;-70
2022/08/08 13:27:10;;;;;;;0.57;0.57;;;27.60;40.40;;;;;;5093368;28;20377;-70
2022/08/08 13:29:38;;;;;;;0.70;0.70;;;27.60;40.50;;;;;;5093291;28;20766;-69
2022/08/08 13:32:05;;;;;;;0.50;0.50;;;27.50;40.50;;;;;;5093573;28;20403;-70